DLH400 EDDF-KJFK
Flight info
| Callsign | DLH400 |
|---|---|
| Flight time | N/A |
| Altitude | 36000 |
| Route | OBOKA2E OBOKA Z28 DIBIR DCT BUDIP DCT RAVLO Y70 SUPEL/N0475F380 Y70 OTBED L60 PENIL M144 BAGSO DCT DOGAL/M082F390 NATC 54N020W/M082F380 NATC RIKAL/N0464F400 N572A TOPPS DCT ENE PARCH4 |
| Aircraft | A346/H-SDE2E3FGHIJ3J4J5M1P2RWXYZ/LB1D1 |
Departure
| Time | 2026-04-18 09:11 |
|---|---|
| Airport | Frankfurt Main Airport (EDDF) |
Arrival
| Time | N/A |
|---|---|
| Airport | John F. Kennedy International Airport (KJFK) |
| Time | Latitude | Longitude | Altitude | Speed | Heading |
|---|---|---|---|---|---|
| 2026-04-18 07:14 | 50.03807 | 8.54484 | 354 ft | 0 kts | 159° |
| 2026-04-18 08:59 | 50.03805 | 8.54485 | 354 ft | 1 kts | 159° |
| 2026-04-18 08:59 | 50.03785 | 8.54497 | 362 ft | 5 kts | 160° |
| 2026-04-18 09:00 | 50.03740 | 8.54524 | 353 ft | 9 kts | 155° |
| 2026-04-18 09:00 | 50.03729 | 8.54606 | 358 ft | 9 kts | 74° |
| 2026-04-18 09:00 | 50.03752 | 8.54708 | 361 ft | 11 kts | 69° |
| 2026-04-18 09:00 | 50.03780 | 8.54823 | 362 ft | 12 kts | 69° |
| 2026-04-18 09:01 | 50.03810 | 8.54951 | 363 ft | 13 kts | 69° |
| 2026-04-18 09:01 | 50.03844 | 8.55090 | 360 ft | 14 kts | 69° |
| 2026-04-18 09:01 | 50.03879 | 8.55239 | 362 ft | 15 kts | 69° |
| 2026-04-18 09:01 | 50.03921 | 8.55415 | 362 ft | 19 kts | 69° |
| 2026-04-18 09:02 | 50.03971 | 8.55621 | 363 ft | 21 kts | 69° |
| 2026-04-18 09:02 | 50.04024 | 8.55842 | 366 ft | 22 kts | 70° |
| 2026-04-18 09:02 | 50.04078 | 8.56072 | 363 ft | 23 kts | 70° |
| 2026-04-18 09:02 | 50.04135 | 8.56311 | 361 ft | 24 kts | 70° |
| 2026-04-18 09:03 | 50.04193 | 8.56555 | 367 ft | 24 kts | 70° |
| 2026-04-18 09:03 | 50.04252 | 8.56801 | 371 ft | 24 kts | 69° |
| 2026-04-18 09:03 | 50.04312 | 8.57052 | 373 ft | 25 kts | 69° |
| 2026-04-18 09:03 | 50.04372 | 8.57303 | 374 ft | 25 kts | 69° |
| 2026-04-18 09:04 | 50.04435 | 8.57564 | 372 ft | 26 kts | 69° |
| 2026-04-18 09:04 | 50.04499 | 8.57832 | 374 ft | 27 kts | 70° |
| 2026-04-18 09:04 | 50.04552 | 8.58055 | 375 ft | 18 kts | 70° |
| 2026-04-18 09:04 | 50.04586 | 8.58202 | 377 ft | 11 kts | 70° |
| 2026-04-18 09:05 | 50.04614 | 8.58319 | 381 ft | 12 kts | 70° |
| 2026-04-18 09:05 | 50.04642 | 8.58437 | 378 ft | 6 kts | 69° |
| 2026-04-18 09:05 | 50.04655 | 8.58511 | 381 ft | 7 kts | 96° |
| 2026-04-18 09:05 | 50.04618 | 8.58571 | 378 ft | 6 kts | 155° |
| 2026-04-18 09:06 | 50.04610 | 8.58577 | 379 ft | 0 kts | 156° |
| 2026-04-18 09:07 | 50.04609 | 8.58577 | 379 ft | 0 kts | 156° |
| 2026-04-18 09:08 | 50.04607 | 8.58579 | 379 ft | 2 kts | 156° |
| 2026-04-18 09:08 | 50.04573 | 8.58600 | 382 ft | 9 kts | 158° |
| 2026-04-18 09:09 | 50.04508 | 8.58611 | 382 ft | 10 kts | 211° |
| 2026-04-18 09:09 | 50.04480 | 8.58552 | 381 ft | 0 kts | 246° |
| 2026-04-18 09:10 | 50.04473 | 8.58526 | 381 ft | 14 kts | 246° |
| 2026-04-18 09:10 | 50.04335 | 8.57958 | 374 ft | 97 kts | 249° |
| 2026-04-18 09:11 | 50.04011 | 8.56603 | 368 ft | 167 kts | 250° |
| 2026-04-18 09:11 | 50.03531 | 8.54644 | 575 ft | 209 kts | 250° |
| 2026-04-18 09:11 | 50.03017 | 8.52504 | 1445 ft | 209 kts | 251° |
| 2026-04-18 09:11 | 50.02457 | 8.50468 | 2602 ft | 201 kts | 236° |
| 2026-04-18 09:12 | 50.01368 | 8.49147 | 3380 ft | 204 kts | 201° |
| 2026-04-18 09:12 | 49.99989 | 8.48538 | 4065 ft | 208 kts | 195° |
| 2026-04-18 09:12 | 49.98577 | 8.47998 | 4800 ft | 209 kts | 195° |
| 2026-04-18 09:12 | 49.97167 | 8.47453 | 5536 ft | 209 kts | 195° |
| 2026-04-18 09:13 | 49.95759 | 8.46883 | 6245 ft | 210 kts | 196° |
| 2026-04-18 09:13 | 49.94314 | 8.46235 | 6708 ft | 224 kts | 197° |
| 2026-04-18 09:13 | 49.92764 | 8.45511 | 7028 ft | 242 kts | 200° |
| 2026-04-18 09:13 | 49.91298 | 8.44148 | 7523 ft | 250 kts | 226° |
| 2026-04-18 09:14 | 49.90280 | 8.41970 | 8328 ft | 249 kts | 238° |
| 2026-04-18 09:14 | 49.89392 | 8.39644 | 9094 ft | 252 kts | 240° |
| 2026-04-18 09:14 | 49.88722 | 8.37118 | 9769 ft | 256 kts | 258° |
| 2026-04-18 09:14 | 49.88604 | 8.34314 | 10287 ft | 268 kts | 272° |
| 2026-04-18 09:15 | 49.88759 | 8.31343 | 10641 ft | 285 kts | 275° |
| 2026-04-18 09:15 | 49.89044 | 8.28209 | 10962 ft | 303 kts | 284° |
| 2026-04-18 09:15 | 49.89826 | 8.25081 | 11290 ft | 321 kts | 298° |
| 2026-04-18 09:15 | 49.91111 | 8.22116 | 11618 ft | 339 kts | 305° |
| 2026-04-18 09:16 | 49.92575 | 8.19124 | 11941 ft | 356 kts | 307° |
| 2026-04-18 09:16 | 49.94236 | 8.16152 | 12327 ft | 370 kts | 312° |
| 2026-04-18 09:16 | 49.96094 | 8.13343 | 13055 ft | 374 kts | 316° |
| 2026-04-18 09:16 | 49.98059 | 8.10688 | 13938 ft | 374 kts | 317° |
| 2026-04-18 09:17 | 50.00046 | 8.08049 | 14669 ft | 376 kts | 317° |
| 2026-04-18 09:17 | 50.02045 | 8.05391 | 15314 ft | 380 kts | 317° |
| 2026-04-18 09:17 | 50.04065 | 8.02698 | 15965 ft | 384 kts | 317° |
| 2026-04-18 09:17 | 50.06094 | 7.99984 | 16634 ft | 387 kts | 317° |
| 2026-04-18 09:18 | 50.08145 | 7.97236 | 17276 ft | 391 kts | 317° |
| 2026-04-18 09:18 | 50.10215 | 7.94453 | 17913 ft | 395 kts | 317° |
| 2026-04-18 09:18 | 50.12306 | 7.91639 | 18533 ft | 399 kts | 317° |
| 2026-04-18 09:18 | 50.14414 | 7.88796 | 19072 ft | 402 kts | 317° |
| 2026-04-18 09:19 | 50.16543 | 7.85922 | 19613 ft | 406 kts | 317° |
| 2026-04-18 09:19 | 50.18691 | 7.83017 | 20130 ft | 410 kts | 317° |
| 2026-04-18 09:19 | 50.20861 | 7.80084 | 20659 ft | 414 kts | 316° |
| 2026-04-18 09:19 | 50.23068 | 7.77163 | 21196 ft | 419 kts | 319° |
| 2026-04-18 09:20 | 50.25452 | 7.74496 | 21723 ft | 424 kts | 324° |
| 2026-04-18 09:20 | 50.28022 | 7.72171 | 22263 ft | 430 kts | 329° |
| 2026-04-18 09:20 | 50.30739 | 7.70169 | 22770 ft | 434 kts | 333° |
| 2026-04-18 09:20 | 50.33520 | 7.68260 | 23302 ft | 438 kts | 333° |
| 2026-04-18 09:21 | 50.36328 | 7.66361 | 23795 ft | 441 kts | 333° |
| 2026-04-18 09:21 | 50.39152 | 7.64442 | 24208 ft | 445 kts | 333° |
| 2026-04-18 09:21 | 50.41960 | 7.62524 | 24644 ft | 447 kts | 333° |
| 2026-04-18 09:21 | 50.44819 | 7.60558 | 25074 ft | 450 kts | 333° |
| 2026-04-18 09:22 | 50.47698 | 7.58572 | 25513 ft | 453 kts | 333° |
| 2026-04-18 09:22 | 50.50589 | 7.56575 | 25934 ft | 455 kts | 333° |
| 2026-04-18 09:22 | 50.53479 | 7.54502 | 26352 ft | 457 kts | 330° |
| 2026-04-18 09:22 | 50.56304 | 7.52201 | 26778 ft | 458 kts | 328° |
| 2026-04-18 09:23 | 50.59058 | 7.49653 | 27194 ft | 459 kts | 324° |
| 2026-04-18 09:23 | 50.61758 | 7.46936 | 27597 ft | 461 kts | 323° |
| 2026-04-18 09:23 | 50.64449 | 7.44168 | 28071 ft | 463 kts | 323° |
| 2026-04-18 09:23 | 50.67141 | 7.41390 | 28650 ft | 461 kts | 323° |
| 2026-04-18 09:24 | 50.69792 | 7.38572 | 29271 ft | 458 kts | 320° |
| 2026-04-18 09:24 | 50.72287 | 7.35483 | 29872 ft | 453 kts | 315° |
| 2026-04-18 09:24 | 50.74591 | 7.32120 | 30420 ft | 449 kts | 311° |
| 2026-04-18 09:24 | 50.76704 | 7.28493 | 30901 ft | 446 kts | 306° |
| 2026-04-18 09:25 | 50.78612 | 7.24644 | 31360 ft | 443 kts | 302° |
| 2026-04-18 09:25 | 50.80402 | 7.20685 | 31823 ft | 442 kts | 301° |
| 2026-04-18 09:25 | 50.82163 | 7.16715 | 32290 ft | 441 kts | 301° |
| 2026-04-18 09:25 | 50.83921 | 7.12736 | 32742 ft | 440 kts | 301° |
| 2026-04-18 09:26 | 50.85674 | 7.08772 | 33196 ft | 439 kts | 301° |
| 2026-04-18 09:26 | 50.87424 | 7.04822 | 33661 ft | 438 kts | 300° |
| 2026-04-18 09:26 | 50.89177 | 7.00875 | 34095 ft | 437 kts | 300° |
| 2026-04-18 09:26 | 50.90932 | 6.96915 | 34447 ft | 437 kts | 300° |
| 2026-04-18 09:27 | 50.92679 | 6.92968 | 34778 ft | 437 kts | 300° |
| 2026-04-18 09:27 | 50.94427 | 6.89012 | 35072 ft | 438 kts | 300° |
| 2026-04-18 09:27 | 50.96178 | 6.85041 | 35354 ft | 439 kts | 300° |
| 2026-04-18 09:27 | 50.97932 | 6.81057 | 35630 ft | 440 kts | 300° |
| 2026-04-18 09:28 | 50.99684 | 6.77069 | 35903 ft | 441 kts | 300° |
| 2026-04-18 09:28 | 51.01442 | 6.73061 | 36140 ft | 442 kts | 300° |
| 2026-04-18 09:28 | 51.04962 | 6.65015 | 36201 ft | 443 kts | 300° |
| 2026-04-18 09:29 | 51.08485 | 6.56944 | 36209 ft | 445 kts | 300° |
| 2026-04-18 09:29 | 51.12019 | 6.48832 | 36211 ft | 445 kts | 300° |
| 2026-04-18 09:30 | 51.15545 | 6.40705 | 36209 ft | 445 kts | 299° |
| 2026-04-18 09:30 | 51.19067 | 6.32557 | 36218 ft | 446 kts | 299° |
| 2026-04-18 09:31 | 51.22583 | 6.24388 | 36218 ft | 446 kts | 299° |
| 2026-04-18 09:31 | 51.26073 | 6.16256 | 36227 ft | 446 kts | 299° |
| 2026-04-18 09:32 | 51.29546 | 6.08032 | 36207 ft | 444 kts | 298° |
| 2026-04-18 09:32 | 51.32911 | 5.99769 | 36201 ft | 444 kts | 297° |
| 2026-04-18 09:33 | 51.36333 | 5.91529 | 36200 ft | 445 kts | 300° |
| 2026-04-18 09:33 | 51.40208 | 5.83721 | 36199 ft | 450 kts | 306° |
| 2026-04-18 09:34 | 51.44492 | 5.76364 | 36209 ft | 452 kts | 308° |
| 2026-04-18 09:34 | 51.48811 | 5.69097 | 36213 ft | 451 kts | 307° |
| 2026-04-18 09:35 | 51.53153 | 5.61755 | 36207 ft | 450 kts | 307° |
| 2026-04-18 09:35 | 51.56763 | 5.55628 | 36207 ft | 450 kts | 307° |
| 2026-04-18 09:36 | 51.61038 | 5.48352 | 36202 ft | 450 kts | 307° |
| 2026-04-18 09:36 | 51.65336 | 5.41014 | 36206 ft | 450 kts | 307° |
| 2026-04-18 09:37 | 51.69630 | 5.33660 | 36230 ft | 450 kts | 307° |
| 2026-04-18 09:37 | 51.73925 | 5.26288 | 36214 ft | 451 kts | 307° |
| 2026-04-18 09:38 | 51.78219 | 5.18885 | 36210 ft | 451 kts | 307° |
| 2026-04-18 09:38 | 51.82503 | 5.11480 | 36203 ft | 451 kts | 307° |
| 2026-04-18 09:39 | 51.86785 | 5.04056 | 36199 ft | 451 kts | 307° |
| 2026-04-18 09:39 | 51.91058 | 4.96627 | 36194 ft | 451 kts | 306° |
| 2026-04-18 09:40 | 51.95336 | 4.89165 | 36210 ft | 451 kts | 306° |
| 2026-04-18 09:40 | 51.99615 | 4.81679 | 36205 ft | 453 kts | 306° |
| 2026-04-18 09:41 | 52.03897 | 4.74167 | 36200 ft | 453 kts | 306° |
| 2026-04-18 09:41 | 52.08175 | 4.66641 | 36194 ft | 453 kts | 306° |
| 2026-04-18 09:42 | 52.12449 | 4.59097 | 36191 ft | 453 kts | 306° |
| 2026-04-18 09:42 | 52.16715 | 4.51545 | 36196 ft | 453 kts | 306° |
| 2026-04-18 09:43 | 52.20974 | 4.43979 | 36218 ft | 453 kts | 306° |
| 2026-04-18 09:43 | 52.25212 | 4.36427 | 36196 ft | 454 kts | 306° |
| 2026-04-18 09:44 | 52.29475 | 4.28813 | 36201 ft | 454 kts | 306° |
| 2026-04-18 09:44 | 52.33736 | 4.21176 | 36198 ft | 454 kts | 306° |
| 2026-04-18 09:45 | 52.37987 | 4.13534 | 36211 ft | 454 kts | 306° |
| 2026-04-18 09:45 | 52.42243 | 4.05859 | 36204 ft | 454 kts | 306° |
| 2026-04-18 09:46 | 52.46478 | 3.98195 | 36222 ft | 454 kts | 306° |
| 2026-04-18 09:46 | 52.50727 | 3.90480 | 36207 ft | 456 kts | 306° |
| 2026-04-18 09:47 | 52.54983 | 3.82737 | 36204 ft | 456 kts | 306° |
| 2026-04-18 09:47 | 52.59230 | 3.74982 | 36204 ft | 456 kts | 306° |
| 2026-04-18 09:48 | 52.63474 | 3.67206 | 36199 ft | 456 kts | 306° |
| 2026-04-18 09:48 | 52.67710 | 3.59419 | 36198 ft | 456 kts | 306° |
| 2026-04-18 09:49 | 52.71939 | 3.51619 | 36214 ft | 456 kts | 306° |
| 2026-04-18 09:49 | 52.76176 | 3.43771 | 36202 ft | 458 kts | 306° |
| 2026-04-18 09:50 | 52.80390 | 3.35952 | 36195 ft | 458 kts | 306° |
| 2026-04-18 09:50 | 52.84624 | 3.28068 | 36183 ft | 458 kts | 306° |
| 2026-04-18 09:51 | 52.88448 | 3.19739 | 36189 ft | 451 kts | 297° |
| 2026-04-18 09:51 | 52.91406 | 3.10647 | 36190 ft | 445 kts | 289° |
| 2026-04-18 09:52 | 52.93465 | 3.01031 | 36213 ft | 440 kts | 281° |
| 2026-04-18 09:52 | 52.94834 | 2.91156 | 36199 ft | 440 kts | 278° |
| 2026-04-18 09:53 | 52.96130 | 2.81222 | 36196 ft | 440 kts | 278° |
| 2026-04-18 09:53 | 52.97418 | 2.71288 | 36196 ft | 440 kts | 278° |
| 2026-04-18 09:54 | 52.98703 | 2.61326 | 36205 ft | 441 kts | 278° |
| 2026-04-18 09:54 | 52.99983 | 2.51341 | 36221 ft | 442 kts | 278° |
| 2026-04-18 09:55 | 53.01252 | 2.41362 | 36204 ft | 441 kts | 278° |
| 2026-04-18 09:55 | 53.02513 | 2.31378 | 36199 ft | 441 kts | 278° |
| 2026-04-18 09:56 | 53.03765 | 2.21378 | 36195 ft | 441 kts | 277° |
| 2026-04-18 09:56 | 53.05007 | 2.11382 | 36195 ft | 441 kts | 277° |
| 2026-04-18 09:57 | 53.06248 | 2.01378 | 36217 ft | 441 kts | 277° |
| 2026-04-18 09:57 | 53.07474 | 1.91401 | 36194 ft | 440 kts | 277° |
| 2026-04-18 09:58 | 53.08689 | 1.81417 | 36192 ft | 440 kts | 277° |
| 2026-04-18 09:58 | 53.09886 | 1.71500 | 36189 ft | 440 kts | 277° |
| 2026-04-18 09:59 | 53.11082 | 1.61505 | 36192 ft | 440 kts | 277° |
| 2026-04-18 10:00 | 53.12858 | 1.46515 | 36210 ft | 439 kts | 277° |
| 2026-04-18 10:00 | 53.14031 | 1.36518 | 36203 ft | 439 kts | 277° |
| 2026-04-18 10:01 | 53.15194 | 1.26531 | 36203 ft | 439 kts | 277° |
| 2026-04-18 10:01 | 53.16350 | 1.16530 | 36200 ft | 439 kts | 277° |
| 2026-04-18 10:02 | 53.17496 | 1.06528 | 36200 ft | 439 kts | 277° |
| 2026-04-18 10:02 | 53.18632 | 0.96527 | 36209 ft | 438 kts | 277° |
| 2026-04-18 10:03 | 53.19759 | 0.86540 | 36198 ft | 437 kts | 277° |
| 2026-04-18 10:03 | 53.20875 | 0.76554 | 36191 ft | 437 kts | 277° |
| 2026-04-18 10:04 | 53.21980 | 0.66567 | 36192 ft | 437 kts | 276° |
| 2026-04-18 10:04 | 53.23080 | 0.56576 | 36175 ft | 437 kts | 276° |
| 2026-04-18 10:05 | 53.24173 | 0.46579 | 36184 ft | 437 kts | 276° |
| 2026-04-18 10:05 | 53.25259 | 0.36585 | 36198 ft | 437 kts | 276° |
| 2026-04-18 10:06 | 53.26340 | 0.26573 | 36169 ft | 438 kts | 276° |
| 2026-04-18 10:06 | 53.27407 | 0.16541 | 36167 ft | 438 kts | 276° |
| 2026-04-18 10:07 | 53.28465 | 0.06503 | 36163 ft | 438 kts | 276° |
| 2026-04-18 10:07 | 53.29519 | -0.03533 | 36177 ft | 439 kts | 276° |
| 2026-04-18 10:08 | 53.30569 | -0.13607 | 36172 ft | 440 kts | 276° |
| 2026-04-18 10:08 | 53.31608 | -0.23697 | 36169 ft | 440 kts | 276° |
| 2026-04-18 10:09 | 53.32629 | -0.33726 | 36171 ft | 440 kts | 276° |
| 2026-04-18 10:09 | 53.33651 | -0.43831 | 36174 ft | 440 kts | 276° |
| 2026-04-18 10:10 | 53.34666 | -0.53934 | 36175 ft | 440 kts | 276° |
| 2026-04-18 10:10 | 53.35677 | -0.64116 | 36173 ft | 440 kts | 276° |
| 2026-04-18 10:11 | 53.36677 | -0.74226 | 36170 ft | 440 kts | 276° |
| 2026-04-18 10:11 | 53.37665 | -0.84339 | 36168 ft | 439 kts | 276° |
| 2026-04-18 10:12 | 53.38638 | -0.94394 | 36163 ft | 439 kts | 276° |
| 2026-04-18 10:12 | 53.39615 | -1.04589 | 36180 ft | 440 kts | 276° |
| 2026-04-18 10:13 | 53.40572 | -1.14668 | 36169 ft | 441 kts | 276° |
| 2026-04-18 10:13 | 53.41531 | -1.24839 | 36169 ft | 441 kts | 276° |
| 2026-04-18 10:14 | 53.42481 | -1.35003 | 36169 ft | 441 kts | 276° |
| 2026-04-18 10:14 | 53.43419 | -1.45175 | 36167 ft | 441 kts | 276° |
| 2026-04-18 10:15 | 53.44349 | -1.55351 | 36186 ft | 441 kts | 276° |
| 2026-04-18 10:15 | 53.45274 | -1.65561 | 36412 ft | 443 kts | 276° |
| 2026-04-18 10:15 | 53.45733 | -1.70665 | 36797 ft | 441 kts | 276° |
| 2026-04-18 10:16 | 53.46188 | -1.75762 | 37094 ft | 441 kts | 276° |
| 2026-04-18 10:16 | 53.46640 | -1.80856 | 37325 ft | 442 kts | 276° |
| 2026-04-18 10:16 | 53.47096 | -1.85983 | 37529 ft | 443 kts | 276° |
| 2026-04-18 10:16 | 53.47550 | -1.91110 | 37731 ft | 445 kts | 276° |
| 2026-04-18 10:17 | 53.48002 | -1.96259 | 37951 ft | 445 kts | 276° |
| 2026-04-18 10:17 | 53.48451 | -2.01402 | 38141 ft | 446 kts | 276° |
| 2026-04-18 10:17 | 53.48898 | -2.06577 | 38175 ft | 447 kts | 276° |
| 2026-04-18 10:18 | 53.49782 | -2.16913 | 38177 ft | 446 kts | 276° |
| 2026-04-18 10:18 | 53.50670 | -2.27226 | 38179 ft | 446 kts | 276° |
| 2026-04-18 10:19 | 53.51547 | -2.37553 | 38179 ft | 446 kts | 276° |
| 2026-04-18 10:19 | 53.52411 | -2.47890 | 38181 ft | 446 kts | 276° |
| 2026-04-18 10:20 | 53.53264 | -2.58218 | 38185 ft | 446 kts | 276° |
| 2026-04-18 10:20 | 53.54106 | -2.68581 | 38186 ft | 447 kts | 276° |
| 2026-04-18 10:21 | 53.54945 | -2.78961 | 38191 ft | 447 kts | 276° |
| 2026-04-18 10:21 | 53.55774 | -2.89349 | 38186 ft | 448 kts | 276° |
| 2026-04-18 10:22 | 53.56594 | -2.99749 | 38187 ft | 448 kts | 276° |
| 2026-04-18 10:22 | 53.57404 | -3.10136 | 38187 ft | 448 kts | 276° |
| 2026-04-18 10:23 | 53.58067 | -3.18745 | 38198 ft | 444 kts | 276° |
| 2026-04-18 10:23 | 53.58854 | -3.29066 | 38193 ft | 444 kts | 276° |
| 2026-04-18 10:24 | 53.59631 | -3.39387 | 38201 ft | 444 kts | 276° |
| 2026-04-18 10:24 | 53.60520 | -3.51381 | 38205 ft | 444 kts | 275° |
| 2026-04-18 10:25 | 53.61153 | -3.60031 | 38206 ft | 444 kts | 275° |
| 2026-04-18 10:25 | 53.61789 | -3.70357 | 38215 ft | 441 kts | 272° |
| 2026-04-18 10:26 | 53.62221 | -3.80656 | 38214 ft | 440 kts | 272° |
| 2026-04-18 10:26 | 53.62636 | -3.90947 | 38209 ft | 440 kts | 272° |
| 2026-04-18 10:27 | 53.63049 | -4.01235 | 38220 ft | 440 kts | 272° |
| 2026-04-18 10:27 | 53.63451 | -4.11464 | 38219 ft | 440 kts | 272° |
| 2026-04-18 10:28 | 53.63847 | -4.21768 | 38227 ft | 440 kts | 272° |
| 2026-04-18 10:28 | 53.64232 | -4.32092 | 38213 ft | 441 kts | 272° |
| 2026-04-18 10:29 | 53.64611 | -4.42417 | 38212 ft | 441 kts | 272° |
| 2026-04-18 10:29 | 53.64985 | -4.52749 | 38228 ft | 441 kts | 272° |
| 2026-04-18 10:30 | 53.65347 | -4.63082 | 38222 ft | 441 kts | 272° |
| 2026-04-18 10:30 | 53.65694 | -4.73441 | 38220 ft | 442 kts | 272° |
| 2026-04-18 10:31 | 53.66035 | -4.83790 | 38223 ft | 442 kts | 272° |
| 2026-04-18 10:31 | 53.66378 | -4.94151 | 38229 ft | 442 kts | 272° |
| 2026-04-18 10:32 | 53.66708 | -5.04503 | 38224 ft | 442 kts | 272° |
| 2026-04-18 10:32 | 53.67028 | -5.14861 | 38228 ft | 442 kts | 272° |
| 2026-04-18 10:33 | 53.67337 | -5.25230 | 38226 ft | 444 kts | 272° |
| 2026-04-18 10:33 | 53.67633 | -5.35667 | 38228 ft | 445 kts | 272° |
| 2026-04-18 10:34 | 53.67919 | -5.46124 | 38226 ft | 445 kts | 272° |
| 2026-04-18 10:34 | 53.68508 | -5.56545 | 38228 ft | 446 kts | 276° |
| 2026-04-18 10:35 | 53.69269 | -5.66945 | 38233 ft | 446 kts | 276° |
| 2026-04-18 10:35 | 53.70021 | -5.77348 | 38229 ft | 446 kts | 276° |
| 2026-04-18 10:36 | 53.70762 | -5.87762 | 38223 ft | 446 kts | 276° |
| 2026-04-18 10:36 | 53.71488 | -5.98108 | 38225 ft | 446 kts | 275° |
| 2026-04-18 10:37 | 53.72209 | -6.08528 | 38226 ft | 446 kts | 275° |
| 2026-04-18 10:37 | 53.72921 | -6.18941 | 38226 ft | 446 kts | 275° |
| 2026-04-18 10:38 | 53.73623 | -6.29372 | 38219 ft | 447 kts | 275° |
| 2026-04-18 10:38 | 53.74319 | -6.39834 | 38224 ft | 448 kts | 275° |
| 2026-04-18 10:39 | 53.75007 | -6.50306 | 38226 ft | 448 kts | 275° |
| 2026-04-18 10:39 | 53.75686 | -6.60791 | 38227 ft | 448 kts | 275° |
| 2026-04-18 10:40 | 53.76355 | -6.71275 | 38224 ft | 448 kts | 275° |
| 2026-04-18 10:40 | 53.77014 | -6.81758 | 38235 ft | 448 kts | 275° |
| 2026-04-18 10:41 | 53.77662 | -6.92235 | 38233 ft | 447 kts | 275° |
| 2026-04-18 10:41 | 53.78304 | -7.02716 | 38227 ft | 447 kts | 275° |
| 2026-04-18 10:42 | 53.78936 | -7.13193 | 38242 ft | 448 kts | 275° |
| 2026-04-18 10:42 | 53.79561 | -7.23722 | 38235 ft | 449 kts | 275° |
| 2026-04-18 10:43 | 53.80177 | -7.34257 | 38236 ft | 449 kts | 275° |
| 2026-04-18 10:43 | 53.80783 | -7.44812 | 38233 ft | 450 kts | 275° |
| 2026-04-18 10:44 | 53.81384 | -7.55385 | 38236 ft | 451 kts | 275° |
| 2026-04-18 10:44 | 53.81975 | -7.65958 | 38234 ft | 450 kts | 275° |
| 2026-04-18 10:45 | 53.82555 | -7.76526 | 38237 ft | 451 kts | 275° |
| 2026-04-18 10:45 | 53.83126 | -7.87107 | 38234 ft | 451 kts | 275° |
| 2026-04-18 10:46 | 53.83686 | -7.97686 | 38239 ft | 450 kts | 275° |
| 2026-04-18 10:46 | 53.84239 | -8.08259 | 38239 ft | 450 kts | 275° |
| 2026-04-18 10:47 | 53.84778 | -8.18759 | 38239 ft | 450 kts | 275° |
| 2026-04-18 10:47 | 53.85312 | -8.29340 | 38239 ft | 450 kts | 275° |
| 2026-04-18 10:48 | 53.85837 | -8.39923 | 38238 ft | 450 kts | 274° |
| 2026-04-18 10:48 | 53.86349 | -8.50487 | 38255 ft | 449 kts | 275° |
| 2026-04-18 10:49 | 53.86854 | -8.61039 | 38257 ft | 449 kts | 275° |
| 2026-04-18 10:49 | 53.87349 | -8.71580 | 38262 ft | 449 kts | 274° |
| 2026-04-18 10:50 | 53.87835 | -8.82141 | 38264 ft | 449 kts | 274° |
| 2026-04-18 10:50 | 53.88311 | -8.92696 | 38264 ft | 449 kts | 274° |
| 2026-04-18 10:51 | 53.88775 | -9.03252 | 38263 ft | 448 kts | 274° |
| 2026-04-18 10:51 | 53.89234 | -9.13799 | 38263 ft | 448 kts | 274° |
| 2026-04-18 10:52 | 53.89681 | -9.24340 | 38271 ft | 448 kts | 274° |
| 2026-04-18 10:52 | 53.90121 | -9.34910 | 38273 ft | 449 kts | 274° |
| 2026-04-18 10:53 | 53.90552 | -9.45478 | 38270 ft | 449 kts | 274° |
| 2026-04-18 10:53 | 53.90969 | -9.56040 | 38285 ft | 448 kts | 274° |
| 2026-04-18 10:54 | 53.91381 | -9.66590 | 38287 ft | 447 kts | 274° |
| 2026-04-18 10:54 | 53.91783 | -9.77138 | 38296 ft | 447 kts | 274° |
| 2026-04-18 10:55 | 53.92173 | -9.87619 | 38297 ft | 447 kts | 274° |
| 2026-04-18 10:55 | 53.92555 | -9.98168 | 38309 ft | 448 kts | 274° |
| 2026-04-18 10:56 | 53.92927 | -10.08728 | 38297 ft | 447 kts | 274° |
| 2026-04-18 10:56 | 53.93291 | -10.19264 | 38305 ft | 447 kts | 274° |
| 2026-04-18 10:57 | 53.93647 | -10.29809 | 38310 ft | 447 kts | 274° |
| 2026-04-18 10:57 | 53.93992 | -10.40352 | 38308 ft | 447 kts | 274° |
| 2026-04-18 10:58 | 53.94328 | -10.50897 | 38308 ft | 447 kts | 274° |
| 2026-04-18 10:58 | 53.94653 | -10.61435 | 38304 ft | 446 kts | 274° |
| 2026-04-18 10:59 | 53.94971 | -10.71959 | 38314 ft | 445 kts | 274° |
| 2026-04-18 10:59 | 53.95279 | -10.82476 | 38310 ft | 445 kts | 274° |
| 2026-04-18 11:00 | 53.95577 | -10.92991 | 38303 ft | 445 kts | 274° |
| 2026-04-18 11:00 | 53.95866 | -11.03509 | 38309 ft | 445 kts | 274° |
| 2026-04-18 11:01 | 53.96146 | -11.14020 | 38317 ft | 445 kts | 274° |